Time;durP1;ratioP1;P1;durP2;ratioP2;P2;SDS_P1;SDS_P2;PMS_P1;PMS_P2;Temp;Humidity;BMP_temperature;BMP_pressure;BME280_temperature;BME280_humidity;BME280_pressure;Samples;Min_cycle;Max_cycle;Signal;HPM_P1;HPM_P2
2022/05/31 00:02:19;;;;;;;17.57;3.57;;;19.90;95.40;;;20.31;62.55;94960.56;5043109;28;20537;-53
2022/05/31 00:04:47;;;;;;;8.43;3.57;;;19.90;95.20;;;20.32;62.64;94956.03;5045222;28;20977;-53
2022/05/31 00:07:14;;;;;;;6.33;3.73;;;19.90;95.20;;;20.33;62.88;94963.84;5042356;28;20470;-53
2022/05/31 00:09:41;;;;;;;6.10;2.93;;;19.90;95.10;;;20.32;62.39;94962.19;5043511;28;20483;-56
2022/05/31 00:12:11;;;;;;;3.57;3.37;;;19.90;95.10;;;20.31;62.57;94965.06;5044189;28;20543;-53
2022/05/31 00:14:38;;;;;;;12.33;3.73;;;19.90;95.10;;;20.29;62.15;94956.44;5042616;28;20472;-52
2022/05/31 00:17:06;;;;;;;10.70;3.37;;;19.90;95.10;;;20.25;62.78;94961.34;5042035;28;20460;-55
2022/05/31 00:19:33;;;;;;;10.73;3.63;;;19.80;95.00;;;20.22;62.57;94967.09;5043147;28;20846;-54
2022/05/31 00:22:05;;;;;;;8.70;3.83;;;19.80;95.10;;;20.20;62.65;94964.63;5041941;28;20464;-55
2022/05/31 00:24:33;;;;;;;15.23;4.53;;;19.80;95.30;;;20.19;62.94;94967.50;5042871;28;20553;-54
2022/05/31 00:27:02;;;;;;;12.57;4.20;;;19.80;95.30;;;20.14;62.89;94967.22;5044547;28;20464;-54
2022/05/31 00:29:31;;;;;;;9.37;4.20;;;19.70;95.30;;;20.09;62.99;94973.16;5042604;28;20545;-55
2022/05/31 00:31:59;;;;;;;9.50;4.10;;;19.70;95.50;;;20.06;63.68;94968.22;5044704;28;20514;-55
2022/05/31 00:34:27;;;;;;;8.03;3.80;;;19.70;95.60;;;20.02;63.32;94972.31;5044425;28;20479;-56
2022/05/31 00:36:54;;;;;;;5.83;3.73;;;19.60;95.70;;;19.98;63.59;94965.72;5040499;28;20894;-55
2022/05/31 00:39:21;;;;;;;8.33;4.80;;;19.60;95.80;;;19.94;63.06;94965.28;5044686;28;20479;-53
2022/05/31 00:42:07;;;;;;;9.60;4.43;;;19.60;95.70;;;19.89;63.66;94975.72;5043228;28;20509;-55
2022/05/31 00:44:36;;;;;;;7.90;4.47;;;19.50;95.80;;;19.83;63.41;94965.81;5044028;28;21043;-53
2022/05/31 00:47:09;;;;;;;8.77;4.57;;;19.40;95.70;;;19.78;64.08;94965.56;5041494;28;20513;-53
2022/05/31 00:49:39;;;;;;;6.73;4.53;;;19.40;95.80;;;19.71;64.12;94966.31;5044567;28;20554;-54
2022/05/31 00:52:11;;;;;;;8.23;4.50;;;19.30;96.00;;;19.69;64.00;94967.56;5040411;28;20457;-55
2022/05/31 00:54:42;;;;;;;15.97;4.67;;;19.30;96.30;;;19.67;64.59;94970.41;5042421;28;20847;-54
2022/05/31 00:57:09;;;;;;;8.27;4.03;;;19.30;96.50;;;19.66;65.03;94967.94;5043743;28;20451;-52
2022/05/31 00:59:44;;;;;;;6.30;4.40;;;19.30;96.80;;;19.65;64.57;94971.63;5042347;28;20475;-54
2022/05/31 01:02:12;;;;;;;12.23;4.17;;;19.20;96.60;;;19.63;64.12;94974.47;5042212;28;20489;-53
2022/05/31 01:04:42;;;;;;;6.40;3.90;;;19.20;96.50;;;19.62;64.69;94977.34;5043305;28;20558;-54
2022/05/31 01:07:09;;;;;;;7.17;4.40;;;19.20;96.50;;;19.62;64.91;94983.50;5043920;28;20541;-53
2022/05/31 01:09:37;;;;;;;7.23;3.60;;;19.20;96.70;;;19.63;65.33;94974.47;5043170;28;20487;-54
2022/05/31 01:12:05;;;;;;;7.47;4.13;;;19.20;96.90;;;19.61;65.12;94973.00;5043735;28;20972;-52
2022/05/31 01:14:32;;;;;;;7.90;4.00;;;19.20;96.80;;;19.60;65.02;94972.19;5043521;28;20475;-54
2022/05/31 01:17:03;;;;;;;7.67;4.60;;;19.20;96.70;;;19.58;64.92;94976.91;5039922;28;20467;-52
2022/05/31 01:22:16;;;;;;;7.20;4.07;;;19.10;96.70;;;19.52;65.14;94983.84;5042031;28;20439;-54
2022/05/31 01:24:53;;;;;;;18.37;5.10;;;19.10;96.80;;;19.53;65.33;94977.50;5036641;28;20476;-54
2022/05/31 01:27:36;;;;;;;11.53;4.00;;;19.10;97.10;;;19.52;65.34;94972.34;5044318;28;20494;-53
2022/05/31 01:30:06;;;;;;;4.80;4.40;;;19.10;97.00;;;19.51;64.57;94978.69;5036376;28;20487;-53
2022/05/31 01:32:35;;;;;;;6.40;4.23;;;19.10;96.90;;;19.49;65.35;94972.72;5044446;28;20456;-53
2022/05/31 01:35:06;;;;;;;4.10;3.70;;;19.10;97.00;;;19.48;64.70;94977.22;5039521;28;20483;-54
2022/05/31 01:37:38;;;;;;;10.30;4.13;;;19.10;96.90;;;19.45;65.42;94979.47;5042599;28;20467;-54
2022/05/31 01:40:10;;;;;;;8.70;3.93;;;19.10;97.00;;;19.44;65.13;94975.13;5041846;28;20487;-58
2022/05/31 01:42:40;;;;;;;7.70;4.73;;;19.00;97.10;;;19.42;65.06;94967.31;5042364;28;20443;-55
2022/05/31 01:45:12;;;;;;;16.50;4.10;;;19.00;97.10;;;19.42;65.27;94971.84;5046146;28;20846;-56
2022/05/31 01:47:39;;;;;;;17.53;4.57;;;19.00;97.20;;;19.41;65.72;94962.19;5046879;28;20509;-55
2022/05/31 01:50:10;;;;;;;4.80;3.83;;;19.00;97.30;;;19.40;64.86;94969.38;5044939;28;20487;-53
2022/05/31 01:52:39;;;;;;;6.57;4.07;;;19.00;97.20;;;19.38;65.42;94965.22;5048506;28;20482;-55
2022/05/31 01:55:07;;;;;;;5.20;3.43;;;19.00;97.20;;;19.37;65.26;94968.94;5046162;28;20490;-56
2022/05/31 01:57:35;;;;;;;8.83;4.50;;;18.90;97.40;;;19.35;65.77;94969.94;5047139;28;20807;-55
2022/05/31 02:00:06;;;;;;;9.07;3.87;;;19.00;97.50;;;19.34;65.82;94970.94;5045798;28;20482;-53
2022/05/31 02:02:33;;;;;;;9.80;3.90;;;18.90;97.40;;;19.34;65.53;94970.13;5046736;28;20443;-52
2022/05/31 02:05:04;;;;;;;5.10;4.23;;;18.90;97.50;;;19.34;65.64;94970.13;5048053;28;20476;-53
2022/05/31 02:07:31;;;;;;;7.73;4.40;;;18.90;97.40;;;19.32;65.65;94970.31;5041436;28;20542;-54
2022/05/31 02:10:00;;;;;;;4.97;4.07;;;18.90;97.30;;;19.30;65.67;94976.84;5046886;28;20488;-54
2022/05/31 02:12:30;;;;;;;10.70;5.20;;;18.90;97.30;;;19.27;65.55;94979.91;5046488;28;20994;-55
2022/05/31 02:14:58;;;;;;;8.20;4.17;;;18.90;97.50;;;19.23;66.09;94978.66;5044150;28;20479;-53
2022/05/31 02:17:25;;;;;;;8.13;4.90;;;18.90;97.50;;;19.17;65.89;94975.72;5045367;28;20486;-55
2022/05/31 02:19:52;;;;;;;19.67;4.57;;;18.80;97.60;;;19.15;65.94;94987.59;5044499;28;20565;-53
2022/05/31 02:22:22;;;;;;;11.70;4.57;;;18.80;97.70;;;19.12;66.25;94982.66;5043013;28;20460;-54
2022/05/31 02:24:49;;;;;;;7.23;5.30;;;18.80;97.90;;;19.10;67.05;94995.31;5046201;28;20478;-54
2022/05/31 02:27:18;;;;;;;8.80;4.47;;;18.70;98.70;;;19.00;66.84;95000.97;5045808;28;20495;-54
2022/05/31 02:29:45;;;;;;;7.20;4.77;;;18.70;98.40;;;18.90;66.80;94998.63;5046608;28;20487;-57
2022/05/31 02:32:14;;;;;;;8.47;4.07;;;18.50;98.20;;;18.85;66.90;95003.69;5043660;28;20514;-55
2022/05/31 02:34:44;;;;;;;9.63;4.27;;;18.50;98.40;;;18.81;67.25;95002.38;5042513;28;20482;-54
2022/05/31 02:37:12;;;;;;;12.00;4.70;;;18.50;98.60;;;18.78;67.32;95002.75;5044613;28;20457;-54
2022/05/31 02:39:39;;;;;;;13.20;5.50;;;18.40;98.50;;;18.76;67.20;95002.09;5046215;28;20525;-56
2022/05/31 02:42:07;;;;;;;12.50;4.97;;;18.40;98.50;;;18.74;67.66;95006.81;5045160;28;20533;-53
2022/05/31 02:44:35;;;;;;;6.90;4.63;;;18.40;98.50;;;18.70;67.54;95005.50;5044750;28;20484;-54
2022/05/31 02:47:03;;;;;;;6.57;4.70;;;18.40;98.50;;;18.67;67.57;95012.06;5046110;28;20491;-53
2022/05/31 02:49:30;;;;;;;10.13;4.73;;;18.30;98.50;;;18.66;66.88;95014.91;5042736;28;21046;-54
2022/05/31 02:51:59;;;;;;;10.10;4.53;;;18.30;98.50;;;18.63;67.38;95008.09;5045872;28;20533;-54
2022/05/31 02:54:26;;;;;;;6.50;4.20;;;18.30;98.50;;;18.60;67.46;95014.63;5044339;28;20475;-56
2022/05/31 02:56:53;;;;;;;14.00;4.77;;;18.30;98.70;;;18.59;67.94;95020.97;5046601;28;20468;-53
2022/05/31 02:59:21;;;;;;;6.80;4.63;;;18.20;98.80;;;18.58;67.85;95026.50;5043554;28;20554;-53
2022/05/31 03:01:50;;;;;;;8.60;4.47;;;18.20;98.80;;;18.53;67.43;95029.72;5045087;28;20847;-54
2022/05/31 03:04:17;;;;;;;9.30;4.83;;;18.20;98.90;;;18.52;67.89;95024.56;5045378;28;20459;-54
2022/05/31 03:06:45;;;;;;;8.40;4.50;;;18.20;99.00;;;18.51;67.97;95029.06;5045623;28;20519;-55
2022/05/31 03:09:12;;;;;;;10.90;4.70;;;18.20;99.10;;;18.49;67.79;95022.28;5044295;28;20809;-56
2022/05/31 03:11:43;;;;;;;8.53;4.90;;;18.20;99.30;;;18.50;68.63;95026.56;5044524;28;20575;-54
2022/05/31 03:14:14;;;;;;;8.77;5.03;;;18.10;99.40;;;18.49;68.58;95031.09;5041426;28;20452;-54
2022/05/31 03:16:43;;;;;;;12.10;5.60;;;18.10;99.50;;;18.49;69.15;95031.09;5044475;28;20570;-54
2022/05/31 03:19:15;;;;;;;14.60;5.90;;;18.10;99.70;;;18.49;69.03;95025.75;5043169;28;21029;-52
2022/05/31 03:21:44;;;;;;;8.27;5.23;;;18.10;99.90;;;18.48;69.05;95029.44;5045225;28;20452;-54
2022/05/31 03:24:14;;;;;;;9.00;5.67;;;18.10;99.70;;;18.49;68.97;95039.06;5046115;28;20510;-53
2022/05/31 03:26:41;;;;;;;10.27;5.80;;;18.10;99.80;;;18.50;69.25;95042.56;5045661;28;20514;-53
2022/05/31 03:29:09;;;;;;;6.23;5.67;;;18.10;99.80;;;18.50;69.07;95051.41;5045603;28;20588;-55
2022/05/31 03:31:36;;;;;;;7.97;5.17;;;18.10;99.90;;;18.50;68.95;95054.06;5044506;28;20460;-53
2022/05/31 03:34:03;;;;;;;10.27;4.83;;;18.10;99.90;;;18.51;68.67;95046.88;5044021;28;20494;-53
2022/05/31 03:36:33;;;;;;;11.40;4.70;;;18.20;99.80;;;18.51;69.01;95053.03;5044304;28;20999;-54
2022/05/31 03:39:01;;;;;;;9.53;4.50;;;18.20;99.80;;;18.50;68.39;95048.72;5044447;28;20464;-52
2022/05/31 03:41:28;;;;;;;13.60;4.40;;;18.20;99.70;;;18.52;68.71;95053.88;5044878;28;20463;-55
2022/05/31 03:43:56;;;;;;;11.17;4.83;;;18.20;99.70;;;18.52;68.46;95056.53;5042204;28;21046;-55
2022/05/31 03:46:23;;;;;;;6.80;4.80;;;18.20;99.70;;;18.53;68.17;95058.19;5044501;28;20596;-53
2022/05/31 03:48:50;;;;;;;6.63;5.10;;;18.20;99.70;;;18.53;68.42;95053.69;5042850;28;20467;-53
2022/05/31 03:51:18;;;;;;;7.17;5.73;;;18.20;99.70;;;18.56;68.14;95052.47;5043928;28;20502;-53
2022/05/31 03:53:46;;;;;;;11.50;6.20;;;18.20;99.80;;;18.56;68.67;95061.31;5043896;28;20501;-55
2022/05/31 03:56:14;;;;;;;8.47;5.87;;;18.20;99.80;;;18.58;69.00;95061.94;5045185;28;20517;-54
2022/05/31 03:58:41;;;;;;;8.50;5.90;;;18.20;99.90;;;18.61;68.53;95055.44;5041970;28;20447;-55
2022/05/31 04:01:09;;;;;;;15.50;6.60;;;18.30;99.90;;;18.62;68.84;95052.59;5045888;28;20493;-55
2022/05/31 04:03:36;;;;;;;12.63;7.00;;;18.30;99.90;;;18.65;69.25;95054.03;5045072;28;20535;-54
2022/05/31 04:06:03;;;;;;;13.83;6.23;;;18.30;99.90;;;18.70;68.54;95056.13;5040519;28;20487;-56
2022/05/31 04:08:31;;;;;;;15.37;6.40;;;18.30;99.90;;;18.73;69.17;95053.94;5043407;28;20455;-54
2022/05/31 04:10:59;;;;;;;9.77;5.80;;;18.40;99.90;;;18.78;68.52;95051.53;5045451;28;21183;-57
2022/05/31 04:13:28;;;;;;;14.07;5.90;;;18.40;99.90;;;18.83;68.63;95053.66;5043675;28;20452;-56
2022/05/31 04:16:04;;;;;;;14.70;5.90;;;18.50;99.90;;;18.89;68.68;95057.44;5041615;28;20984;-55
2022/05/31 04:18:32;;;;;;;13.97;6.77;;;18.50;99.90;;;18.95;68.94;95068.19;5041806;28;20455;-55
2022/05/31 04:21:02;;;;;;;15.23;7.23;;;18.60;99.90;;;19.01;68.41;95071.94;5042737;28;20479;-55
2022/05/31 04:26:16;;;;;;;12.37;5.90;;;18.70;99.90;;;19.18;68.30;95083.22;5041652;28;20479;-55
2022/05/31 04:28:43;;;;;;;11.73;5.50;;;18.80;99.90;;;19.23;68.09;95080.81;5042035;28;21035;-54
2022/05/31 04:31:11;;;;;;;14.03;5.60;;;18.80;99.80;;;19.29;68.38;95068.56;5043352;28;20488;-56
2022/05/31 04:33:38;;;;;;;8.93;6.30;;;18.90;99.80;;;19.34;68.04;95076.81;5043945;28;20451;-55
2022/05/31 04:36:07;;;;;;;13.63;6.20;;;18.90;99.70;;;19.42;67.60;95086.53;5040925;28;20913;-55
2022/05/31 04:38:35;;;;;;;13.40;6.13;;;19.00;99.60;;;19.47;67.49;95081.47;5041866;28;20521;-53
2022/05/31 04:41:02;;;;;;;19.27;5.40;;;19.10;99.50;;;19.51;67.26;95085.41;5041759;28;20887;-53
2022/05/31 04:43:31;;;;;;;14.13;4.90;;;19.10;99.30;;;19.59;67.24;95095.94;5041525;28;20553;-57
2022/05/31 04:45:59;;;;;;;77.00;19.13;;;19.20;99.30;;;19.65;67.19;95100.53;5043067;28;20472;-57
2022/05/31 04:48:26;;;;;;;6.60;4.30;;;19.30;99.30;;;19.74;67.10;95103.09;5040909;28;20823;-54
2022/05/31 04:50:53;;;;;;;10.67;5.20;;;19.30;99.20;;;19.79;67.14;95100.69;5041099;28;20468;-53
2022/05/31 04:53:21;;;;;;;8.57;5.30;;;19.40;99.00;;;19.82;66.78;95100.31;5043481;28;20448;-56
2022/05/31 04:55:48;;;;;;;8.60;4.93;;;19.40;99.00;;;19.85;66.84;95102.59;5043675;28;20472;-54
2022/05/31 04:58:15;;;;;;;6.83;5.33;;;19.40;99.00;;;19.88;66.66;95096.88;5044979;28;20464;-54
2022/05/31 05:00:44;;;;;;;14.67;5.40;;;19.50;99.00;;;19.90;67.23;95092.16;5041979;28;21027;-56
2022/05/31 05:03:11;;;;;;;9.43;5.37;;;19.50;99.20;;;19.92;67.00;95098.13;5042100;28;20479;-58
2022/05/31 05:05:38;;;;;;;6.73;5.30;;;19.50;98.90;;;19.95;66.79;95088.91;5043190;28;20529;-54
2022/05/31 05:08:06;;;;;;;15.70;6.67;;;19.50;98.90;;;19.97;67.12;95093.06;5044756;28;20495;-53
2022/05/31 05:10:34;;;;;;;10.57;5.27;;;19.60;98.90;;;20.03;66.93;95100.28;5044085;28;20480;-55
2022/05/31 05:13:01;;;;;;;9.47;5.60;;;19.60;98.90;;;20.10;67.02;95099.53;5041368;28;20937;-54
2022/05/31 05:15:28;;;;;;;9.10;5.93;;;19.70;98.90;;;20.16;66.47;95093.41;5044456;28;20467;-54
2022/05/31 05:17:57;;;;;;;9.20;7.50;;;19.70;98.90;;;20.29;66.52;95096.16;5044673;28;20987;-55
2022/05/31 05:20:24;;;;;;;12.80;7.47;;;19.80;98.80;;;20.40;66.40;95097.47;5048897;28;20663;-55
2022/05/31 05:22:52;;;;;;;19.40;7.57;;;20.00;98.70;;;20.53;65.88;95096.75;5046267;28;20976;-55
2022/05/31 05:25:19;;;;;;;9.40;6.53;;;20.00;98.60;;;20.68;66.03;95100.16;5045702;28;20769;-57
2022/05/31 05:27:46;;;;;;;19.03;6.63;;;20.20;98.50;;;20.83;65.43;95093.84;5044673;28;21174;-54
2022/05/31 05:33:00;;;;;;;18.90;7.37;;;20.50;98.20;;;21.25;64.78;95090.09;5044064;28;20432;-53
2022/05/31 05:35:28;;;;;;;14.47;6.80;;;20.70;97.90;;;21.43;64.29;95092.22;5039933;28;20475;-57
2022/05/31 05:37:55;;;;;;;9.60;6.07;;;20.90;97.70;;;21.64;63.65;95103.81;5045567;28;20544;-53
2022/05/31 05:40:23;;;;;;;9.70;6.57;;;21.10;97.40;;;21.81;63.36;95102.44;5043834;28;20476;-54
2022/05/31 05:42:50;;;;;;;14.53;7.03;;;21.30;97.20;;;22.01;62.78;95109.63;5046560;28;21010;-54
2022/05/31 05:45:18;;;;;;;11.73;6.33;;;21.50;96.90;;;22.18;62.59;95099.34;5046645;28;20571;-53
2022/05/31 05:47:45;;;;;;;18.23;7.07;;;21.60;96.60;;;22.39;62.37;95106.38;5045055;28;20525;-56
2022/05/31 05:50:14;;;;;;;12.90;6.67;;;21.80;96.20;;;22.59;61.83;95108.19;5046593;28;20479;-54
2022/05/31 05:52:41;;;;;;;9.50;6.07;;;22.00;95.80;;;22.77;60.91;95108.38;5047349;28;20451;-54
2022/05/31 05:55:09;;;;;;;13.47;5.80;;;22.20;95.40;;;22.96;61.24;95103.16;5041060;28;20456;-57
2022/05/31 05:57:37;;;;;;;16.23;6.07;;;22.40;95.10;;;23.13;60.19;95109.75;5047681;28;20456;-52
2022/05/31 06:00:06;;;;;;;23.93;5.70;;;22.50;95.00;;;23.32;60.38;95112.56;5043512;28;21007;-53
2022/05/31 06:02:34;;;;;;;12.10;5.43;;;22.70;94.70;;;23.43;59.22;95111.88;5042744;28;20479;-53
2022/05/31 06:05:07;;;;;;;11.33;5.40;;;22.80;94.00;;;23.52;58.86;95109.78;5046643;28;20983;-55
2022/05/31 06:07:37;;;;;;;15.60;5.13;;;22.90;93.90;;;23.68;58.76;95113.81;5042557;28;20521;-55
2022/05/31 06:10:09;;;;;;;19.83;5.87;;;23.10;93.60;;;23.88;57.43;95102.97;5047672;28;21000;-54
2022/05/31 06:12:39;;;;;;;7.70;5.20;;;23.30;92.70;;;24.07;58.18;95109.25;5045135;28;20534;-56
2022/05/31 06:15:09;;;;;;;14.67;5.67;;;23.50;92.70;;;24.27;57.47;95112.59;5046198;28;20497;-53
2022/05/31 06:17:38;;;;;;;14.83;4.90;;;23.60;92.60;;;24.43;57.48;95105.84;5045939;28;20451;-54
2022/05/31 06:20:07;;;;;;;10.87;5.60;;;23.80;92.20;;;24.58;56.42;95105.53;5047572;28;20482;-53
2022/05/31 06:22:36;;;;;;;19.60;6.83;;;24.00;91.80;;;24.74;56.04;95111.38;5044998;28;21137;-55
2022/05/31 06:25:05;;;;;;;14.70;5.17;;;24.10;91.60;;;24.80;55.92;95094.34;5044924;28;20471;-56
2022/05/31 06:27:32;;;;;;;9.67;6.17;;;24.20;91.00;;;24.87;55.71;95100.50;5044685;28;20497;-53
2022/05/31 06:29:59;;;;;;;7.03;6.33;;;24.30;90.50;;;24.99;55.62;95109.47;5045277;28;20487;-55
2022/05/31 06:32:27;;;;;;;14.93;5.70;;;24.40;90.60;;;25.14;55.73;95109.06;5043984;28;20969;-55
2022/05/31 06:34:54;;;;;;;6.07;4.77;;;24.50;90.40;;;25.31;54.90;95109.31;5046350;28;20467;-54
2022/05/31 06:37:22;;;;;;;8.37;5.93;;;24.70;90.30;;;25.50;54.91;95109.28;5041868;28;20447;-55
2022/05/31 06:39:50;;;;;;;10.23;4.70;;;24.80;89.90;;;25.70;53.97;95101.78;5047114;28;20494;-56
2022/05/31 06:42:18;;;;;;;19.10;4.97;;;25.00;89.10;;;25.93;53.70;95105.56;5042214;28;20451;-57
2022/05/31 06:44:45;;;;;;;8.37;4.80;;;25.20;88.40;;;26.14;52.98;95104.25;5043049;28;21000;-54
2022/05/31 06:47:13;;;;;;;12.67;4.87;;;25.50;87.20;;;26.32;52.74;95108.75;5044665;28;20510;-54
2022/05/31 06:49:41;;;;;;;12.60;4.73;;;25.70;85.60;;;26.52;52.32;95111.09;5044945;28;20602;-52
2022/05/31 06:57:44;;;;;;;8.73;4.43;;;26.20;82.20;;;27.12;50.74;95088.44;5044662;28;20561;-56
2022/05/31 07:00:15;;;;;;;6.93;5.50;;;26.50;81.10;;;27.22;50.34;95087.84;5043043;28;20483;-53
2022/05/31 07:02:42;;;;;;;11.13;5.03;;;26.60;79.80;;;27.21;50.07;95088.06;5037953;28;20446;-55
2022/05/31 07:05:11;;;;;;;12.47;4.87;;;26.60;78.90;;;27.25;50.22;95086.50;5041975;28;20497;-54
2022/05/31 07:07:38;;;;;;;20.17;5.70;;;26.60;79.30;;;27.37;50.48;95079.22;5041865;28;20566;-54
2022/05/31 07:10:09;;;;;;;16.67;4.70;;;26.70;79.90;;;27.57;50.20;95089.59;5044238;28;21023;-56
2022/05/31 07:12:37;;;;;;;9.47;5.17;;;26.90;79.30;;;27.81;49.93;95087.63;5045295;28;20435;-55
2022/05/31 07:15:05;;;;;;;14.30;5.50;;;27.10;78.50;;;27.98;49.42;95094.97;5044747;28;20657;-56
2022/05/31 07:17:34;;;;;;;19.23;4.47;;;27.30;77.60;;;28.08;48.66;95095.97;5042458;28;20467;-55
2022/05/31 07:20:01;;;;;;;10.80;5.30;;;27.40;76.80;;;28.23;49.20;95097.31;5046031;28;20507;-56
2022/05/31 07:22:28;;;;;;;11.70;5.40;;;27.50;76.60;;;28.32;48.39;95100.41;5043463;28;20529;-56
2022/05/31 07:24:56;;;;;;;9.03;4.30;;;27.60;76.00;;;28.46;48.02;95101.72;5043910;28;20970;-54
2022/05/31 07:27:25;;;;;;;6.47;4.67;;;27.70;74.90;;;28.64;47.63;95097.16;5043431;28;20487;-55
2022/05/31 07:29:52;;;;;;;11.60;4.57;;;27.90;73.70;;;28.82;47.25;95090.66;5044779;28;20563;-54
2022/05/31 07:32:19;;;;;;;10.83;5.00;;;28.10;73.10;;;29.00;47.67;95097.66;5039800;28;20646;-53
2022/05/31 07:34:47;;;;;;;8.90;4.43;;;28.30;72.30;;;29.21;46.70;95096.88;5043113;28;21043;-54
2022/05/31 07:37:14;;;;;;;15.93;5.40;;;28.50;72.00;;;29.39;45.87;95101.19;5043680;28;20978;-55
2022/05/31 07:39:42;;;;;;;11.17;5.40;;;28.60;71.00;;;29.54;45.74;95089.66;5044582;28;20854;-53
2022/05/31 07:42:09;;;;;;;5.67;4.53;;;28.80;69.80;;;29.65;46.15;95083.31;5043424;28;20448;-54
2022/05/31 07:44:38;;;;;;;6.73;4.20;;;29.00;68.50;;;29.73;46.15;95079.31;5044441;28;20545;-55
2022/05/31 07:47:06;;;;;;;12.17;5.00;;;29.00;67.80;;;29.87;45.81;95077.06;5043479;28;20943;-54
2022/05/31 07:49:34;;;;;;;5.43;4.33;;;29.10;67.50;;;30.02;45.08;95073.66;5042844;28;20836;-55
2022/05/31 07:52:01;;;;;;;9.10;4.47;;;29.30;67.10;;;30.20;45.75;95083.31;5043072;28;20451;-57
2022/05/31 07:54:31;;;;;;;22.33;4.73;;;29.50;67.10;;;30.38;44.27;95076.66;5042377;28;20566;-55
2022/05/31 07:56:58;;;;;;;11.43;4.70;;;29.60;64.60;;;30.51;44.93;95076.25;5042497;28;20898;-55
2022/05/31 07:59:27;;;;;;;17.47;5.20;;;29.80;64.70;;;30.67;43.93;95074.44;5044612;28;20229;-54
2022/05/31 08:01:56;;;;;;;22.73;5.00;;;29.90;64.20;;;30.86;44.36;95076.72;5044722;28;20287;-55
2022/05/31 08:04:23;;;;;;;14.40;4.73;;;30.10;63.20;;;31.03;43.24;95076.59;5043988;28;20472;-57
2022/05/31 08:06:51;;;;;;;11.50;5.30;;;30.30;62.20;;;31.21;43.43;95078.03;5044286;28;20200;-52
2022/05/31 08:09:21;;;;;;;7.00;5.40;;;30.50;62.50;;;31.38;42.58;95077.84;5044074;28;20241;-55
2022/05/31 08:11:49;;;;;;;7.97;4.60;;;30.60;60.30;;;31.54;42.42;95068.69;5044864;28;20631;-55
2022/05/31 08:14:16;;;;;;;21.57;4.53;;;30.80;60.10;;;31.73;42.54;95071.72;5037920;28;20201;-56
2022/05/31 08:16:43;;;;;;;11.33;5.17;;;31.00;59.70;;;31.91;42.20;95069.56;5045310;28;20247;-54
2022/05/31 08:19:12;;;;;;;13.10;5.30;;;31.20;59.50;;;32.10;42.31;95072.59;5044691;28;20204;-56
2022/05/31 08:21:39;;;;;;;9.30;4.60;;;31.30;59.30;;;32.26;41.79;95059.84;5042581;28;20609;-55
2022/05/31 08:24:08;;;;;;;11.30;4.73;;;31.50;58.30;;;32.28;41.70;95065.81;5042105;28;20238;-55
2022/05/31 08:26:35;;;;;;;11.75;4.25;;;31.60;57.90;;;32.21;40.97;95057.94;5042839;28;20201;-54
2022/05/31 08:29:02;;;;;;;12.50;5.30;;;31.50;56.80;;;32.10;41.21;95054.41;5041147;28;20760;-54
2022/05/31 08:31:31;;;;;;;7.67;3.93;;;31.40;56.70;;;32.13;40.93;95055.75;5043675;28;20291;-55
2022/05/31 08:33:59;;;;;;;6.82;4.32;;;31.40;56.20;;;32.16;41.02;95050.59;5040132;28;20544;-53
2022/05/31 08:36:28;;;;;;;11.87;5.03;;;31.40;56.30;;;32.26;41.08;95048.97;5044726;28;20790;-54
2022/05/31 08:38:55;;;;;;;21.93;5.60;;;31.50;56.80;;;32.42;40.93;95047.84;5042409;28;20662;-55
2022/05/31 08:41:28;;;;;;;7.10;4.30;;;31.70;56.50;;;32.56;40.64;95047.28;5043634;28;20232;-53
2022/05/31 08:44:05;;;;;;;11.15;4.38;;;31.80;56.20;;;32.65;40.60;95045.66;5040527;28;20278;-54
2022/05/31 08:46:47;;;;;;;10.52;4.40;;;31.90;55.80;;;32.70;40.38;95048.38;5041105;28;20212;-56
2022/05/31 08:49:19;;;;;;;11.05;5.32;;;31.90;55.50;;;32.78;40.00;95045.09;5039536;28;20273;-54
2022/05/31 08:51:56;;;;;;;8.93;5.05;;;32.00;55.30;;;32.93;39.95;95038.78;5042266;28;20212;-53
2022/05/31 08:57:27;;;;;;;14.15;4.43;;;32.30;54.10;;;33.08;39.13;95042.53;5041289;28;20196;-56
2022/05/31 08:59:57;;;;;;;4.93;3.50;;;32.40;53.30;;;33.09;38.57;95038.72;5043940;28;20227;-56
2022/05/31 09:02:30;;;;;;;10.05;4.05;;;32.40;52.30;;;33.09;38.41;95042.25;5040574;28;20205;-53
2022/05/31 09:05:04;;;;;;;14.45;4.35;;;32.40;52.30;;;33.13;37.66;95045.28;5041974;28;20240;-55
2022/05/31 09:07:39;;;;;;;11.68;3.88;;;32.50;51.40;;;33.09;37.22;95039.53;5042040;28;20197;-53
2022/05/31 09:10:08;;;;;;;12.13;3.58;;;32.40;51.20;;;32.91;37.66;95043.69;5039162;28;20385;-54
2022/05/31 09:12:43;;;;;;;10.18;4.57;;;32.30;50.80;;;32.90;37.69;95035.81;5041423;28;20278;-55
2022/05/31 09:15:13;;;;;;;9.13;3.38;;;32.20;51.30;;;32.98;37.71;95027.06;5043188;28;20227;-56
2022/05/31 09:17:48;;;;;;;9.93;3.45;;;32.20;50.80;;;33.11;37.41;95031.91;5040910;28;20193;-53
2022/05/31 09:20:18;;;;;;;7.40;4.40;;;32.40;50.60;;;33.27;36.69;95034.63;5042070;28;20223;-57
2022/05/31 09:22:47;;;;;;;6.72;4.47;;;32.50;49.70;;;33.37;37.10;95029.94;5041170;28;20220;-55
2022/05/31 09:25:15;;;;;;;11.18;3.75;;;32.60;50.40;;;33.42;37.27;95029.09;5040140;28;20727;-57
2022/05/31 09:27:44;;;;;;;11.35;3.78;;;32.70;50.00;;;33.49;36.98;95032.31;5040269;28;20326;-54
2022/05/31 09:30:15;;;;;;;4.50;3.20;;;32.80;49.80;;;33.61;36.35;95028.44;5044533;28;20236;-54
2022/05/31 09:32:54;;;;;;;3.83;3.40;;;32.90;49.20;;;33.71;33.44;95031.94;5042536;28;20251;-53
2022/05/31 09:35:52;;;;;;;9.63;3.85;;;33.00;46.10;;;33.69;33.87;95036.03;5039310;28;20657;-55
2022/05/31 09:38:51;;;;;;;8.02;3.28;;;33.00;47.00;;;33.72;34.37;95033.56;5040857;28;20216;-54
2022/05/31 09:41:22;;;;;;;8.88;3.65;;;33.00;47.00;;;33.76;34.86;95036.56;5042034;28;20240;-54
2022/05/31 09:43:54;;;;;;;9.43;3.85;;;33.10;47.10;;;33.72;35.22;95035.47;5041915;28;20207;-53
2022/05/31 09:46:30;;;;;;;4.53;3.33;;;33.00;47.00;;;33.74;35.26;95030.56;5041460;28;20225;-55
2022/05/31 09:48:57;;;;;;;4.50;3.33;;;33.10;47.10;;;33.76;35.21;95031.09;5042714;28;20780;-54
2022/05/31 09:51:29;;;;;;;6.07;3.65;;;33.10;46.80;;;33.74;35.45;95027.81;5041058;28;20205;-54
2022/05/31 09:59:29;;;;;;;8.80;4.57;;;33.00;47.00;;;33.78;35.74;95023.44;5040691;28;20712;-53
2022/05/31 10:01:57;;;;;;;9.77;3.40;;;33.10;47.10;;;33.87;35.50;95023.66;5043330;28;20652;-54
2022/05/31 10:04:27;;;;;;;10.57;3.83;;;33.20;47.20;;;33.91;35.09;95021.97;5043404;28;20224;-52
2022/05/31 10:06:58;;;;;;;11.90;3.97;;;33.20;47.10;;;33.94;34.52;95022.25;5046389;28;20254;-55
2022/05/31 10:09:33;;;;;;;5.50;3.53;;;33.30;46.70;;;33.97;33.58;95015.38;5044743;28;20259;-56
2022/05/31 10:12:06;;;;;;;6.70;3.47;;;33.30;45.80;;;33.98;34.17;95013.50;5043371;28;20223;-56
2022/05/31 10:14:36;;;;;;;8.63;3.05;;;33.30;46.10;;;33.95;34.78;95012.94;5046315;28;20224;-54
2022/05/31 10:17:36;;;;;;;5.68;3.00;;;33.30;46.40;;;34.00;33.60;95008.53;5046319;28;20191;-53
2022/05/31 10:20:22;;;;;;;3.95;3.20;;;33.30;45.30;;;34.01;33.03;95005.53;5042627;28;20678;-55
2022/05/31 10:22:59;;;;;;;10.65;3.35;;;33.30;44.80;;;34.00;32.13;95008.53;5044902;28;20201;-55
2022/05/31 10:25:31;;;;;;;3.83;3.42;;;33.30;44.00;;;33.92;33.48;95007.25;5044395;28;20304;-53
2022/05/31 10:28:00;;;;;;;15.57;3.50;;;33.30;44.80;;;33.90;34.44;95006.72;5045718;28;20209;-57
2022/05/31 10:30:28;;;;;;;3.65;2.97;;;33.20;45.40;;;33.93;34.23;95003.41;5045060;28;20228;-56
2022/05/31 10:32:56;;;;;;;13.48;3.88;;;33.30;45.10;;;33.90;34.16;94999.34;5046557;28;20196;-56
2022/05/31 10:35:27;;;;;;;7.05;3.65;;;33.30;45.40;;;33.89;34.59;94992.25;5045348;28;20303;-55
2022/05/31 10:38:00;;;;;;;6.78;3.08;;;33.30;45.60;;;33.78;33.62;94990.69;5045332;28;20305;-55
2022/05/31 10:40:44;;;;;;;7.90;3.05;;;33.10;45.10;;;33.57;34.03;94990.81;5045794;28;20230;-55
2022/05/31 10:43:26;;;;;;;10.18;4.60;;;33.00;45.50;;;33.48;34.76;94987.06;5045426;28;20291;-54
2022/05/31 10:45:54;;;;;;;4.32;3.85;;;32.90;46.10;;;33.49;35.19;94977.75;5044035;28;20312;-56
2022/05/31 10:48:22;;;;;;;7.13;4.10;;;32.80;46.60;;;33.53;34.64;94978.84;5044154;28;20283;-54